Aérodrome :
LOGIN :

S'inscrire | Disclaimer

   EN    FR    IT 

 










Légende :    VFR   VFR Marginal   IFR   IFR Intensif   IFR Très Intensif
Visi : 
Plafond : 
>= 8 km
>= 3000ft
5 à 8 km
1000 à 3000 ft
1500m à 5 km
500 à 1000 ft
800 à 1500m
200 à 500 ft
< 800m
< 200 ft
Symboles :   Orages  Brouillard  Fortes neiges  Fortes précipitations  Vent > 20 kt
SIGMETs :   Divers  Orages  Givrage  Turbulence  Onde Orograph.  Cendres Volcan.






- Altitude de l'aérodrome : 461 ft
- Code IATA : WIE


ETOU - Wiesbaden Army

DERNIER METAR :
  • 291120Z AUTO 22004KT 9999 OVC007 05/03 A2998 RMK AO2 SLP159 $

METARs EXPIRÉS :
  • 291100Z AUTO 20004KT 9000 HZ OVC008 05/02 A2999 RMK AO2 CIG 007 RWY07 SLP162 $
  • 291055Z AUTO 20006KT 9999 OVC007 05/02 A2999 RMK AO2 SLP162 T00530023 $
  • 291015Z AUTO 20003KT 8000 HZ OVC007 05/02 A3001 RMK AO2 CIG 006 RWY07 SLP168 $
  • 290955Z AUTO 20004KT 8000 BR OVC006 05/02 A3001 RMK AO2 CIG 005 RWY07 SLP169 T00450024 $
  • 290935Z AUTO 19003KT 6000 BR OVC006 04/02 A3002 RMK AO2 SLP172 $
  • 290910Z AUTO 17005KT 9999 OVC007 04/02 A3003 RMK AO2 SLP175 $
  • 290855Z AUTO 15003KT 9999 OVC008 04/02 A3003 RMK AO2 CIG 008V010 OVC V BKN SLP176 T00420019 58004 $
  • 290810Z AUTO 00000KT 9999 BKN011 03/01 A3003 RMK AO2 BKN V FEW SLP176 $
  • 290755Z AUTO 00000KT 9999 CLR 01/M01 A3003 RMK AO2 SLP176 T00101008 $
  • 290655Z AUTO 00000KT 9999 CLR M00/M02 A3005 RMK AO2 SLP182 T10031019 $

TAF AMD TAF ETOU
Valide du 29 à 09h jusqu'au 01 à 11h UTC


290905Z 2909/0111 VRB06KT 9000 BR SCT008 QNH2989INS
TEMPO 2909/2911 00000KT 6000 BR BKN008
BECMG 2912/2913 17006KT 9999 NSW FEW010 SCT015 QNH2971INS
BECMG 2923/2924 VRB06KT 8000 BR SCT020 QNH2969INS
BECMG 0102/0103 VRB06KT 8000 BR SCT008 BKN010 QNH2970INS
BECMG 0108/0109 18009KT 9999 NSW SCT012 BKN015 QNH2971INS TX08/2914Z TN01/0102Z



MET'MAP, la Météo Aéronautique d'un coup d'oeil ! - Copyright ORBIFLY Décembre 2007 - Disclaimer

ORBIFLY MET'MAP TEAM :

Programmation & Développement : Alexandra Zaïnal
Sur une idée originale de : Baudouin d'Aumeries
Soutien technique & logistique : Manuel Goepfert
Assistance : Marc-Olivier Méhu




SOURCES & CREDITS :

   NOAA